Time;durP1;ratioP1;P1;durP2;ratioP2;P2;SDS_P1;SDS_P2;PMS_P1;PMS_P2;Temp;Humidity;BMP_temperature;BMP_pressure;BME280_temperature;BME280_humidity;BME280_pressure;Samples;Min_cycle;Max_cycle;Signal;HPM_P1;HPM_P2
2023/12/27 00:01:10;;;;;;;;;;;;;;;;;;5126334;28;19980;-59
2023/12/27 00:03:41;;;;;;;;;;;;;;;;;;5125544;28;19926;-59
2023/12/27 00:06:12;;;;;;;;;;;;;;;;;;5125600;28;20044;-59
2023/12/27 00:08:43;;;;;;;;;;;;;;;;;;5126993;28;19926;-61
2023/12/27 00:11:14;;;;;;;;;;;;;;;;;;5125781;28;20481;-60
2023/12/27 00:13:45;;;;;;;;;;;;;;;;;;5141878;28;19973;-61
2023/12/27 00:16:16;;;;;;;;;;;;;;;;;;5126007;28;20329;-61
2023/12/27 00:18:47;;;;;;;;;;;;;;;;;;5141504;28;20038;-60
2023/12/27 00:21:18;;;;;;;;;;;;;;;;;;5125323;28;19922;-60
2023/12/27 00:23:49;;;;;;;;;;;;;;;;;;5141945;28;19922;-59
2023/12/27 00:26:20;;;;;;;;;;;;;;;;;;5141493;28;19939;-59
2023/12/27 00:28:51;;;;;;;;;;;;;;;;;;5125721;28;20444;-59
2023/12/27 00:31:22;;;;;;;;;;;;;;;;;;5141906;28;19918;-60
2023/12/27 00:33:53;;;;;;;;;;;;;;;;;;5125384;28;19922;-61
2023/12/27 00:36:29;;;;;;;;;;;;;;;;;;5141611;28;20017;-61
2023/12/27 00:39:01;;;;;;;;;;;;;;;;;;5125287;28;19925;-60
2023/12/27 00:41:32;;;;;;;;;;;;;;;;;;5125459;28;19925;-59
2023/12/27 00:44:03;;;;;;;;;;;;;;;;;;5125654;28;19918;-60
2023/12/27 00:46:35;;;;;;;;;;;;;;;;;;5142606;28;19918;-59
2023/12/27 00:49:06;;;;;;;;;;;;;;;;;;5144993;28;20028;-59
2023/12/27 00:51:37;;;;;;;;;;;;;;;;;;5145706;28;19961;-61
2023/12/27 00:54:08;;;;;;;;;;;;;;;;;;5129052;28;19925;-59
2023/12/27 00:56:39;;;;;;;;;;;;;;;;;;5145407;28;20325;-60
2023/12/27 00:59:10;;;;;;;;;;;;;;;;;;5129086;28;19929;-59
2023/12/27 01:01:43;;;;;;;;;;;;;;;;;;5145391;28;20267;-59
2023/12/27 01:04:14;;;;;;;;;;;;;;;;;;5158175;28;19918;-61
2023/12/27 01:06:45;;;;;;;;;;;;;;;;;;5146124;28;20273;-59
2023/12/27 01:09:16;;;;;;;;;;;;;;;;;;5132724;28;19924;-60
2023/12/27 01:11:47;;;;;;;;;;;;;;;;;;5129685;28;19944;-60
2023/12/27 01:14:19;;;;;;;;;;;;;;;;;;5145097;28;19918;-60
2023/12/27 01:16:50;;;;;;;;;;;;;;;;;;5145159;28;19918;-60
2023/12/27 01:19:21;;;;;;;;;;;;;;;;;;5129188;28;19969;-60
2023/12/27 01:21:52;;;;;;;;;;;;;;;;;;5144704;28;20000;-60
2023/12/27 01:24:23;;;;;;;;;;;;;;;;;;5128605;28;20435;-59
2023/12/27 01:26:54;;;;;;;;;;;;;;;;;;5145390;28;19918;-59
2023/12/27 01:29:25;;;;;;;;;;;;;;;;;;5144739;28;19922;-59
2023/12/27 01:31:56;;;;;;;;;;;;;;;;;;5144689;28;19921;-59
2023/12/27 01:34:27;;;;;;;;;;;;;;;;;;5144185;28;20289;-59
2023/12/27 01:36:57;;;;;;;;;;;;;;;;;;5144491;28;19922;-59
2023/12/27 01:39:29;;;;;;;;;;;;;;;;;;5128119;28;19976;-59
2023/12/27 01:42:00;;;;;;;;;;;;;;;;;;5127028;28;19918;-59
2023/12/27 01:44:31;;;;;;;;;;;;;;;;;;5144299;28;20242;-59
2023/12/27 01:47:02;;;;;;;;;;;;;;;;;;5148818;28;20008;-59
2023/12/27 01:49:33;;;;;;;;;;;;;;;;;;5153594;28;20419;-59
2023/12/27 01:52:04;;;;;;;;;;;;;;;;;;5152498;28;20056;-59
2023/12/27 01:54:35;;;;;;;;;;;;;;;;;;5144314;28;19922;-59
2023/12/27 01:57:06;;;;;;;;;;;;;;;;;;5149199;28;19926;-60
2023/12/27 01:59:37;;;;;;;;;;;;;;;;;;5131587;28;19922;-61
2023/12/27 02:02:08;;;;;;;;;;;;;;;;;;5127983;28;19918;-60
2023/12/27 02:04:39;;;;;;;;;;;;;;;;;;5144063;28;19922;-59
2023/12/27 02:07:10;;;;;;;;;;;;;;;;;;5127722;28;19928;-58
2023/12/27 02:09:41;;;;;;;;;;;;;;;;;;5131421;28;20388;-59
2023/12/27 02:12:12;;;;;;;;;;;;;;;;;;5143699;28;19918;-59
2023/12/27 02:14:43;;;;;;;;;;;;;;;;;;5150362;28;20380;-58
2023/12/27 02:17:14;;;;;;;;;;;;;;;;;;5143630;28;20071;-58
2023/12/27 02:19:45;;;;;;;;;;;;;;;;;;5143739;28;20337;-58
2023/12/27 02:22:16;;;;;;;;;;;;;;;;;;5144348;28;19926;-58
2023/12/27 02:24:47;;;;;;;;;;;;;;;;;;5149720;28;20429;-57
2023/12/27 02:27:18;;;;;;;;;;;;;;;;;;5143242;28;19997;-57
2023/12/27 02:29:49;;;;;;;;;;;;;;;;;;5146006;28;20008;-57
2023/12/27 02:32:20;;;;;;;;;;;;;;;;;;5146722;28;19918;-57
2023/12/27 02:34:51;;;;;;;;;;;;;;;;;;5126713;28;20495;-57
2023/12/27 02:37:22;;;;;;;;;;;;;;;;;;5143652;28;19922;-58
2023/12/27 02:39:53;;;;;;;;;;;;;;;;;;5142969;28;19922;-58
2023/12/27 02:42:24;;;;;;;;;;;;;;;;;;5142999;28;19918;-57
2023/12/27 02:44:55;;;;;;;;;;;;;;;;;;5150857;28;20336;-58
2023/12/27 02:47:26;;;;;;;;;;;;;;;;;;5147899;28;19972;-58
2023/12/27 02:49:57;;;;;;;;;;;;;;;;;;5143515;28;19918;-58
2023/12/27 02:52:28;;;;;;;;;;;;;;;;;;5143145;28;19972;-57
2023/12/27 02:54:59;;;;;;;;;;;;;;;;;;5142905;28;20417;-57
2023/12/27 02:57:30;;;;;;;;;;;;;;;;;;5140766;28;20016;-58
2023/12/27 03:00:03;;;;;;;;;;;;;;;;;;5122579;28;19923;-57
2023/12/27 03:02:34;;;;;;;;;;;;;;;;;;5135789;28;19933;-58
2023/12/27 03:05:05;;;;;;;;;;;;;;;;;;5126517;28;19922;-59
2023/12/27 03:07:36;;;;;;;;;;;;;;;;;;5126661;28;20235;-61
2023/12/27 03:10:07;;;;;;;;;;;;;;;;;;5131839;28;19926;-58
2023/12/27 03:12:38;;;;;;;;;;;;;;;;;;5142574;28;19994;-58
2023/12/27 03:15:09;;;;;;;;;;;;;;;;;;5142959;28;20395;-58
2023/12/27 03:17:40;;;;;;;;;;;;;;;;;;5142843;28;19925;-58
2023/12/27 03:20:11;;;;;;;;;;;;;;;;;;5126537;28;20333;-57
2023/12/27 03:22:42;;;;;;;;;;;;;;;;;;5126401;28;19972;-58
2023/12/27 03:25:13;;;;;;;;;;;;;;;;;;5143170;28;20281;-58
2023/12/27 03:27:44;;;;;;;;;;;;;;;;;;5154351;28;19965;-58
2023/12/27 03:30:15;;;;;;;;;;;;;;;;;;5142294;28;19970;-59
2023/12/27 03:32:46;;;;;;;;;;;;;;;;;;5142372;28;20340;-58
2023/12/27 03:35:17;;;;;;;;;;;;;;;;;;5151988;28;19921;-58
2023/12/27 03:37:48;;;;;;;;;;;;;;;;;;5145266;28;19922;-59
2023/12/27 03:40:19;;;;;;;;;;;;;;;;;;5126316;28;20373;-59
2023/12/27 03:42:50;;;;;;;;;;;;;;;;;;5140445;28;20012;-59
2023/12/27 03:45:21;;;;;;;;;;;;;;;;;;5126347;28;20032;-58
2023/12/27 03:47:53;;;;;;;;;;;;;;;;;;5141937;28;19918;-58
2023/12/27 03:50:24;;;;;;;;;;;;;;;;;;5141945;28;19918;-59
2023/12/27 03:52:55;;;;;;;;;;;;;;;;;;5142115;28;19941;-59
2023/12/27 03:55:27;;;;;;;;;;;;;;;;;;5141742;28;19925;-59
2023/12/27 03:57:58;;;;;;;;;;;;;;;;;;5125958;28;19972;-59
2023/12/27 04:00:29;;;;;;;;;;;;;;;;;;5143326;28;19930;-59
2023/12/27 04:03:00;;;;;;;;;;;;;;;;;;5142287;28;19922;-59
2023/12/27 04:05:31;;;;;;;;;;;;;;;;;;5146273;28;20361;-59
2023/12/27 04:08:02;;;;;;;;;;;;;;;;;;5150132;28;19918;-59
2023/12/27 04:10:34;;;;;;;;;;;;;;;;;;5125719;28;20385;-59
2023/12/27 04:13:05;;;;;;;;;;;;;;;;;;5125437;28;19929;-59
2023/12/27 04:15:36;;;;;;;;;;;;;;;;;;5133063;28;19921;-59
2023/12/27 04:18:07;;;;;;;;;;;;;;;;;;5130060;28;19925;-59
2023/12/27 04:20:38;;;;;;;;;;;;;;;;;;5126345;28;20017;-59
2023/12/27 04:23:09;;;;;;;;;;;;;;;;;;5145110;28;20013;-59
2023/12/27 04:25:40;;;;;;;;;;;;;;;;;;5129744;28;20390;-61
2023/12/27 04:28:11;;;;;;;;;;;;;;;;;;5146138;28;19945;-59
2023/12/27 04:30:42;;;;;;;;;;;;;;;;;;5145887;28;19922;-59
2023/12/27 04:33:13;;;;;;;;;;;;;;;;;;5145492;28;20246;-60
2023/12/27 04:35:44;;;;;;;;;;;;;;;;;;5129736;28;19926;-60
2023/12/27 04:38:15;;;;;;;;;;;;;;;;;;5162270;28;19988;-60
2023/12/27 04:40:46;;;;;;;;;;;;;;;;;;5129481;28;19965;-60
2023/12/27 04:43:17;;;;;;;;;;;;;;;;;;5145552;28;19924;-60
2023/12/27 04:45:49;;;;;;;;;;;;;;;;;;5145652;28;19918;-58
2023/12/27 04:48:20;;;;;;;;;;;;;;;;;;5129319;28;19922;-58
2023/12/27 04:50:51;;;;;;;;;;;;;;;;;;5155926;28;19925;-59
2023/12/27 04:53:22;;;;;;;;;;;;;;;;;;5155550;28;20387;-59
2023/12/27 04:55:53;;;;;;;;;;;;;;;;;;5145417;28;19969;-58
2023/12/27 04:58:24;;;;;;;;;;;;;;;;;;5129134;28;19940;-59
2023/12/27 05:00:55;;;;;;;;;;;;;;;;;;5145258;28;19922;-59
2023/12/27 05:03:27;;;;;;;;;;;;;;;;;;5144798;28;19918;-58
2023/12/27 05:05:58;;;;;;;;;;;;;;;;;;5145338;28;19989;-58
2023/12/27 05:08:29;;;;;;;;;;;;;;;;;;5144703;28;19917;-59
2023/12/27 05:11:00;;;;;;;;;;;;;;;;;;5144852;28;20072;-58
2023/12/27 05:13:31;;;;;;;;;;;;;;;;;;5145245;28;19961;-58
2023/12/27 05:16:02;;;;;;;;;;;;;;;;;;5144883;28;19934;-59
2023/12/27 05:18:33;;;;;;;;;;;;;;;;;;5144720;28;19926;-58
2023/12/27 05:21:05;;;;;;;;;;;;;;;;;;5128710;28;20032;-58
2023/12/27 05:23:36;;;;;;;;;;;;;;;;;;5129186;28;20004;-58
2023/12/27 05:26:07;;;;;;;;;;;;;;;;;;5145345;28;19925;-58
2023/12/27 05:28:40;;;;;;;;;;;;;;;;;;5145624;28;19977;-58
2023/12/27 05:31:11;;;;;;;;;;;;;;;;;;5129214;28;20703;-58
2023/12/27 05:33:45;;;;;;;;;;;;;;;;;;5125932;28;19985;-58
2023/12/27 05:36:16;;;;;;;;;;;;;;;;;;5143047;28;19964;-58
2023/12/27 05:38:47;;;;;;;;;;;;;;;;;;5144767;28;19965;-58
2023/12/27 05:41:24;;;;;;;;;;;;;;;;;;5144340;28;19937;-58
2023/12/27 05:43:55;;;;;;;;;;;;;;;;;;5130995;28;19917;-57
2023/12/27 05:46:26;;;;;;;;;;;;;;;;;;5148312;28;20503;-58
2023/12/27 05:48:57;;;;;;;;;;;;;;;;;;5149402;28;19918;-59
2023/12/27 05:51:28;;;;;;;;;;;;;;;;;;5147234;28;20412;-58
2023/12/27 05:53:59;;;;;;;;;;;;;;;;;;5144237;28;19969;-58
2023/12/27 05:56:30;;;;;;;;;;;;;;;;;;5143389;28;19922;-58
2023/12/27 05:59:01;;;;;;;;;;;;;;;;;;5127777;28;19946;-58
2023/12/27 06:01:32;;;;;;;;;;;;;;;;;;5143449;28;19994;-58
2023/12/27 06:04:03;;;;;;;;;;;;;;;;;;5132380;28;19917;-58
2023/12/27 06:06:34;;;;;;;;;;;;;;;;;;5151111;28;19926;-58
2023/12/27 06:09:05;;;;;;;;;;;;;;;;;;5143359;28;19925;-58
2023/12/27 06:11:37;;;;;;;;;;;;;;;;;;5127208;28;19928;-60
2023/12/27 06:14:08;;;;;;;;;;;;;;;;;;5151996;28;19917;-58
2023/12/27 06:16:39;;;;;;;;;;;;;;;;;;5146992;28;19957;-58
2023/12/27 06:19:10;;;;;;;;;;;;;;;;;;5143118;28;20499;-58
2023/12/27 06:21:41;;;;;;;;;;;;;;;;;;5143335;28;20002;-59
2023/12/27 06:24:12;;;;;;;;;;;;;;;;;;5127061;28;19951;-59
2023/12/27 06:26:43;;;;;;;;;;;;;;;;;;5143475;28;20381;-59
2023/12/27 06:29:14;;;;;;;;;;;;;;;;;;5143150;28;19921;-58
2023/12/27 06:31:45;;;;;;;;;;;;;;;;;;5130246;28;20296;-58
2023/12/27 06:34:18;;;;;;;;;;;;;;;;;;5126942;28;19965;-60
2023/12/27 06:36:51;;;;;;;;;;;;;;;;;;5127032;28;19918;-60
2023/12/27 06:39:22;;;;;;;;;;;;;;;;;;5126333;28;20017;-59
2023/12/27 06:41:53;;;;;;;;;;;;;;;;;;5127275;28;20370;-58
2023/12/27 06:44:24;;;;;;;;;;;;;;;;;;5142141;28;20325;-59
2023/12/27 06:46:55;;;;;;;;;;;;;;;;;;5142929;28;20392;-59
2023/12/27 06:49:26;;;;;;;;;;;;;;;;;;5142482;28;19922;-59
2023/12/27 06:51:57;;;;;;;;;;;;;;;;;;5142577;28;19922;-59
2023/12/27 06:54:28;;;;;;;;;;;;;;;;;;5126625;28;19918;-60
2023/12/27 06:56:59;;;;;;;;;;;;;;;;;;5142329;28;19922;-61
2023/12/27 06:59:30;;;;;;;;;;;;;;;;;;5126607;28;20113;-58
2023/12/27 07:02:01;;;;;;;;;;;;;;;;;;5126301;28;19933;-57
2023/12/27 07:04:32;;;;;;;;;;;;;;;;;;5124334;28;20552;-58
2023/12/27 07:07:04;;;;;;;;;;;;;;;;;;5126443;28;19925;-58
2023/12/27 07:09:34;;;;;;;;;;;;;;;;;;5141979;28;20016;-59
2023/12/27 07:12:09;;;;;;;;;;;;;;;;;;5148389;28;20277;-58
2023/12/27 07:14:40;;;;;;;;;;;;;;;;;;5144242;28;19918;-58
2023/12/27 07:17:11;;;;;;;;;;;;;;;;;;5142273;28;20364;-58
2023/12/27 07:19:42;;;;;;;;;;;;;;;;;;5141750;28;19922;-58
2023/12/27 07:22:13;;;;;;;;;;;;;;;;;;5142251;28;20013;-58
2023/12/27 07:24:45;;;;;;;;;;;;;;;;;;5142277;28;20285;-58
2023/12/27 07:27:16;;;;;;;;;;;;;;;;;;5142049;28;19932;-58
2023/12/27 07:29:47;;;;;;;;;;;;;;;;;;5142149;28;20262;-58
2023/12/27 07:32:18;;;;;;;;;;;;;;;;;;5141813;28;19925;-58
2023/12/27 07:34:49;;;;;;;;;;;;;;;;;;5125788;28;20354;-57
2023/12/27 07:37:20;;;;;;;;;;;;;;;;;;5141936;28;19972;-58
2023/12/27 07:39:51;;;;;;;;;;;;;;;;;;5125839;28;19926;-58
2023/12/27 07:42:22;;;;;;;;;;;;;;;;;;5141341;28;19968;-58
2023/12/27 07:44:53;;;;;;;;;;;;;;;;;;5141055;28;19925;-58
2023/12/27 07:47:24;;;;;;;;;;;;;;;;;;5125757;28;20266;-57
2023/12/27 07:49:55;;;;;;;;;;;;;;;;;;5142900;28;19918;-58
2023/12/27 07:52:26;;;;;;;;;;;;;;;;;;5147768;28;19922;-58
2023/12/27 07:54:58;;;;;;;;;;;;;;;;;;5125404;28;20001;-58
2023/12/27 07:57:29;;;;;;;;;;;;;;;;;;5140537;28;20084;-58
2023/12/27 08:00:00;;;;;;;;;;;;;;;;;;5134333;28;19922;-58
2023/12/27 08:02:31;;;;;;;;;;;;;;;;;;5141971;28;19925;-57
2023/12/27 08:05:04;;;;;;;;;;;;;;;;;;5134015;28;19921;-58
2023/12/27 08:07:35;;;;;;;;;;;;;;;;;;5141349;28;19961;-58
2023/12/27 08:10:06;;;;;;;;;;;;;;;;;;5125482;28;19968;-58
2023/12/27 08:12:37;;;;;;;;;;;;;;;;;;5125236;28;19918;-58
2023/12/27 08:15:08;;;;;;;;;;;;;;;;;;5141522;28;19972;-58
2023/12/27 08:17:39;;;;;;;;;;;;;;;;;;5141716;28;20365;-58
2023/12/27 08:20:12;;;;;;;;;;;;;;;;;;5125192;28;20349;-58
2023/12/27 08:22:43;;;;;;;;;;;;;;;;;;5125414;28;19922;-58
2023/12/27 08:25:15;;;;;;;;;;;;;;;;;;5141474;28;20285;-59
2023/12/27 08:27:46;;;;;;;;;;;;;;;;;;5141193;28;20013;-60
2023/12/27 08:30:17;;;;;;;;;;;;;;;;;;5140879;28;19964;-58
2023/12/27 08:32:48;;;;;;;;;;;;;;;;;;5140693;28;19926;-58
2023/12/27 08:35:19;;;;;;;;;;;;;;;;;;5124642;28;20254;-58
2023/12/27 08:37:50;;;;;;;;;;;;;;;;;;5140829;28;19960;-58
2023/12/27 08:40:22;;;;;;;;;;;;;;;;;;5140669;28;20352;-58
2023/12/27 08:42:53;;;;;;;;;;;;;;;;;;5124408;28;19922;-59
2023/12/27 08:45:24;;;;;;;;;;;;;;;;;;5140475;28;20278;-58
2023/12/27 08:47:55;;;;;;;;;;;;;;;;;;5122722;28;20388;-58
2023/12/27 08:50:26;;;;;;;;;;;;;;;;;;5140178;28;20008;-59
2023/12/27 08:52:57;;;;;;;;;;;;;;;;;;5124201;28;20344;-57
2023/12/27 08:55:28;;;;;;;;;;;;;;;;;;5124042;28;19918;-57
2023/12/27 08:57:59;;;;;;;;;;;;;;;;;;5132204;28;20364;-57
2023/12/27 09:00:30;;;;;;;;;;;;;;;;;;5143562;28;19925;-56
2023/12/27 09:03:01;;;;;;;;;;;;;;;;;;5141010;28;20401;-57
2023/12/27 09:05:32;;;;;;;;;;;;;;;;;;5140859;28;20025;-58
2023/12/27 09:08:03;;;;;;;;;;;;;;;;;;5142024;28;19976;-57
2023/12/27 09:10:35;;;;;;;;;;;;;;;;;;5144397;28;19925;-58
2023/12/27 09:13:06;;;;;;;;;;;;;;;;;;5128354;28;19914;-57
2023/12/27 09:15:37;;;;;;;;;;;;;;;;;;5144756;28;19918;-58
2023/12/27 09:18:11;;;;;;;;;;;;;;;;;;5128381;28;19918;-60
2023/12/27 09:20:42;;;;;;;;;;;;;;;;;;5128460;28;19929;-57
2023/12/27 09:23:13;;;;;;;;;;;;;;;;;;5144258;28;19922;-59
2023/12/27 09:25:44;;;;;;;;;;;;;;;;;;5128083;28;20318;-60
2023/12/27 09:28:15;;;;;;;;;;;;;;;;;;5128291;28;19921;-58
2023/12/27 09:30:46;;;;;;;;;;;;;;;;;;5128279;28;20016;-58
2023/12/27 09:33:17;;;;;;;;;;;;;;;;;;5144261;28;20001;-60
2023/12/27 09:35:48;;;;;;;;;;;;;;;;;;5144037;28;19918;-60
2023/12/27 09:38:19;;;;;;;;;;;;;;;;;;5144262;28;19922;-60
2023/12/27 09:40:50;;;;;;;;;;;;;;;;;;5144114;28;20355;-59
2023/12/27 09:43:23;;;;;;;;;;;;;;;;;;5143094;28;19972;-60
2023/12/27 09:45:54;;;;;;;;;;;;;;;;;;5127307;28;19970;-60
2023/12/27 09:48:25;;;;;;;;;;;;;;;;;;5143964;28;19926;-60
2023/12/27 09:50:56;;;;;;;;;;;;;;;;;;5143685;28;20342;-60
2023/12/27 09:53:27;;;;;;;;;;;;;;;;;;5143758;28;20029;-60
2023/12/27 09:55:59;;;;;;;;;;;;;;;;;;5143488;28;19988;-60
2023/12/27 09:58:30;;;;;;;;;;;;;;;;;;5143762;28;19954;-60
2023/12/27 10:01:01;;;;;;;;;;;;;;;;;;5127309;28;20389;-60
2023/12/27 10:03:32;;;;;;;;;;;;;;;;;;5143904;28;20389;-60
2023/12/27 10:06:06;;;;;;;;;;;;;;;;;;5143299;28;19918;-60
2023/12/27 10:08:37;;;;;;;;;;;;;;;;;;5143545;28;19922;-60
2023/12/27 10:11:11;;;;;;;;;;;;;;;;;;5143502;28;19933;-59
2023/12/27 10:13:42;;;;;;;;;;;;;;;;;;5143140;28;19925;-58
2023/12/27 10:16:13;;;;;;;;;;;;;;;;;;5144050;28;19922;-57
2023/12/27 10:18:44;;;;;;;;;;;;;;;;;;5142507;28;19925;-58
2023/12/27 10:21:16;;;;;;;;;;;;;;;;;;5142630;28;19922;-58
2023/12/27 10:23:47;;;;;;;;;;;;;;;;;;5142985;28;19928;-59
2023/12/27 10:26:19;;;;;;;;;;;;;;;;;;5142930;28;20360;-60
2023/12/27 10:28:50;;;;;;;;;;;;;;;;;;5142887;28;19918;-60
2023/12/27 10:31:21;;;;;;;;;;;;;;;;;;5142789;28;20391;-61
2023/12/27 10:33:52;;;;;;;;;;;;;;;;;;5126971;28;19933;-60
2023/12/27 10:36:25;;;;;;;;;;;;;;;;;;5126656;28;19965;-59
2023/12/27 10:38:59;;;;;;;;;;;;;;;;;;5142904;28;19918;-59
2023/12/27 10:41:30;;;;;;;;;;;;;;;;;;5126673;28;20373;-57
2023/12/27 10:44:04;;;;;;;;;;;;;;;;;;5142623;28;19918;-57
2023/12/27 10:46:36;;;;;;;;;;;;;;;;;;5142971;28;19925;-57
2023/12/27 10:49:07;;;;;;;;;;;;;;;;;;5142892;28;19918;-56
2023/12/27 10:51:38;;;;;;;;;;;;;;;;;;5143081;28;20293;-57
2023/12/27 10:54:10;;;;;;;;;;;;;;;;;;5126686;28;19953;-57
2023/12/27 10:56:41;;;;;;;;;;;;;;;;;;5142676;28;20013;-58
2023/12/27 10:59:12;;;;;;;;;;;;;;;;;;5142587;28;20008;-59
2023/12/27 11:01:43;;;;;;;;;;;;;;;;;;5126028;28;19918;-59
2023/12/27 11:04:14;;;;;;;;;;;;;;;;;;5138806;28;20354;-60
2023/12/27 11:06:45;;;;;;;;;;;;;;;;;;5136500;28;19925;-60
2023/12/27 11:09:16;;;;;;;;;;;;;;;;;;5126207;28;20378;-61
2023/12/27 11:11:47;;;;;;;;;;;;;;;;;;5142171;28;19976;-61
2023/12/27 11:14:24;;;;;;;;;;;;;;;;;;5142613;28;20238;-60
2023/12/27 11:16:55;;;;;;;;;;;;;;;;;;5126271;28;20272;-60
2023/12/27 11:19:26;;;;;;;;;;;;;;;;;;5142090;28;19922;-61
2023/12/27 11:21:57;;;;;;;;;;;;;;;;;;5141883;28;20336;-60
2023/12/27 11:24:28;;;;;;;;;;;;;;;;;;5142133;28;19918;-61
2023/12/27 11:27:00;;;;;;;;;;;;;;;;;;5126083;28;19918;-62
2023/12/27 11:29:31;;;;;;;;;;;;;;;;;;5142082;28;19976;-60
2023/12/27 11:32:03;;;;;;;;;;;;;;;;;;5141063;28;19929;-60
2023/12/27 11:34:34;;;;;;;;;;;;;;;;;;5141540;28;20297;-59
2023/12/27 11:37:05;;;;;;;;;;;;;;;;;;5125788;28;19918;-60
2023/12/27 11:39:38;;;;;;;;;;;;;;;;;;5125234;28;19929;-60
2023/12/27 11:42:09;;;;;;;;;;;;;;;;;;5141521;28;19930;-60
2023/12/27 11:44:40;;;;;;;;;;;;;;;;;;5141161;28;19918;-60
2023/12/27 11:47:13;;;;;;;;;;;;;;;;;;5141464;28;19922;-60
2023/12/27 11:49:44;;;;;;;;;;;;;;;;;;5141148;28;19969;-60
2023/12/27 11:52:15;;;;;;;;;;;;;;;;;;5141455;28;19929;-60
2023/12/27 11:54:46;;;;;;;;;;;;;;;;;;5125405;28;20005;-60
2023/12/27 11:57:17;;;;;;;;;;;;;;;;;;5141445;28;19918;-60
2023/12/27 11:59:48;;;;;;;;;;;;;;;;;;5141190;28;19984;-60
2023/12/27 12:02:22;;;;;;;;;;;;;;;;;;5141643;28;20072;-59
2023/12/27 12:04:53;;;;;;;;;;;;;;;;;;5133755;28;19918;-60
2023/12/27 12:07:24;;;;;;;;;;;;;;;;;;5140965;28;20289;-60
2023/12/27 12:09:56;;;;;;;;;;;;;;;;;;5141399;28;20008;-60
2023/12/27 12:12:27;;;;;;;;;;;;;;;;;;5141360;28;19972;-60
2023/12/27 12:14:58;;;;;;;;;;;;;;;;;;5141195;28;20365;-61
2023/12/27 12:17:30;;;;;;;;;;;;;;;;;;5141522;28;19918;-60
2023/12/27 12:20:03;;;;;;;;;;;;;;;;;;5140866;28;19980;-60
2023/12/27 12:22:34;;;;;;;;;;;;;;;;;;5141571;28;19918;-60
2023/12/27 12:25:06;;;;;;;;;;;;;;;;;;5140943;28;19914;-60
2023/12/27 12:27:38;;;;;;;;;;;;;;;;;;5140972;28;19969;-59
2023/12/27 12:30:09;;;;;;;;;;;;;;;;;;5141322;28;20337;-59
2023/12/27 12:32:40;;;;;;;;;;;;;;;;;;5142056;28;20261;-60
2023/12/27 12:35:11;;;;;;;;;;;;;;;;;;5152710;28;19914;-60
2023/12/27 12:37:43;;;;;;;;;;;;;;;;;;5140483;28;20005;-60
2023/12/27 12:40:14;;;;;;;;;;;;;;;;;;5140764;28;20033;-60
2023/12/27 12:42:45;;;;;;;;;;;;;;;;;;5125588;28;19929;-60
2023/12/27 12:45:16;;;;;;;;;;;;;;;;;;5128846;28;19930;-60
2023/12/27 12:47:49;;;;;;;;;;;;;;;;;;5128596;28;20008;-60
2023/12/27 12:50:20;;;;;;;;;;;;;;;;;;5128716;28;19917;-60
2023/12/27 12:52:51;;;;;;;;;;;;;;;;;;5128984;28;20052;-60
2023/12/27 12:55:28;;;;;;;;;;;;;;;;;;5144897;28;19918;-60
2023/12/27 12:57:59;;;;;;;;;;;;;;;;;;5144154;28;19977;-58
2023/12/27 13:00:31;;;;;;;;;;;;;;;;;;5144390;28;19981;-61
2023/12/27 13:03:02;;;;;;;;;;;;;;;;;;5128586;28;19966;-60
2023/12/27 13:05:33;;;;;;;;;;;;;;;;;;5140087;28;20349;-59
2023/12/27 13:08:04;;;;;;;;;;;;;;;;;;5144544;28;19918;-61
2023/12/27 13:10:35;;;;;;;;;;;;;;;;;;5144206;28;19917;-61
2023/12/27 13:13:06;;;;;;;;;;;;;;;;;;5130533;28;19928;-60
2023/12/27 13:15:37;;;;;;;;;;;;;;;;;;5138825;28;19918;-61
2023/12/27 13:18:08;;;;;;;;;;;;;;;;;;5144281;28;19925;-60
2023/12/27 13:20:39;;;;;;;;;;;;;;;;;;5128281;28;20304;-61
2023/12/27 13:23:10;;;;;;;;;;;;;;;;;;5144001;28;19922;-60
2023/12/27 13:25:42;;;;;;;;;;;;;;;;;;5144554;28;19948;-59
2023/12/27 13:28:13;;;;;;;;;;;;;;;;;;5144075;28;19941;-60
2023/12/27 13:30:44;;;;;;;;;;;;;;;;;;5128127;28;19922;-60
2023/12/27 13:33:15;;;;;;;;;;;;;;;;;;5128245;28;20030;-60
2023/12/27 13:35:47;;;;;;;;;;;;;;;;;;5143890;28;19929;-60
2023/12/27 13:38:18;;;;;;;;;;;;;;;;;;5128094;28;19926;-61
2023/12/27 13:40:49;;;;;;;;;;;;;;;;;;5126349;28;19922;-61
2023/12/27 13:43:20;;;;;;;;;;;;;;;;;;5144387;28;19963;-61
2023/12/27 13:45:51;;;;;;;;;;;;;;;;;;5143527;28;19925;-61
2023/12/27 13:48:22;;;;;;;;;;;;;;;;;;5143727;28;20017;-58
2023/12/27 13:50:53;;;;;;;;;;;;;;;;;;5127549;28;20262;-58
2023/12/27 13:53:24;;;;;;;;;;;;;;;;;;5127037;28;19918;-58
2023/12/27 13:55:55;;;;;;;;;;;;;;;;;;5142554;28;20037;-60
2023/12/27 13:58:28;;;;;;;;;;;;;;;;;;5153955;28;20402;-59
2023/12/27 14:00:59;;;;;;;;;;;;;;;;;;5128085;28;20373;-59
2023/12/27 14:03:32;;;;;;;;;;;;;;;;;;5144111;28;19972;-58
2023/12/27 14:06:04;;;;;;;;;;;;;;;;;;5144543;28;20562;-58
2023/12/27 14:08:35;;;;;;;;;;;;;;;;;;5127839;28;20025;-58
2023/12/27 14:11:06;;;;;;;;;;;;;;;;;;5138662;28;20460;-59
2023/12/27 14:13:37;;;;;;;;;;;;;;;;;;5145877;28;19917;-58
2023/12/27 14:16:08;;;;;;;;;;;;;;;;;;5126873;28;19925;-57
2023/12/27 14:18:39;;;;;;;;;;;;;;;;;;5127725;28;19924;-57
2023/12/27 14:21:11;;;;;;;;;;;;;;;;;;5144708;28;20289;-57
2023/12/27 14:23:42;;;;;;;;;;;;;;;;;;5151994;28;19929;-57
2023/12/27 14:26:13;;;;;;;;;;;;;;;;;;5154422;28;19926;-58
2023/12/27 14:28:44;;;;;;;;;;;;;;;;;;5151006;28;20447;-57
2023/12/27 14:31:15;;;;;;;;;;;;;;;;;;5142263;28;19924;-58
2023/12/27 14:33:46;;;;;;;;;;;;;;;;;;5142655;28;20326;-57
2023/12/27 14:36:17;;;;;;;;;;;;;;;;;;5125076;28;20077;-57
2023/12/27 14:38:51;;;;;;;;;;;;;;;;;;5141662;28;19928;-58
2023/12/27 14:41:22;;;;;;;;;;;;;;;;;;5126428;28;20276;-58
2023/12/27 14:43:54;;;;;;;;;;;;;;;;;;5129675;28;19929;-57
2023/12/27 14:46:27;;;;;;;;;;;;;;;;;;5142588;28;19925;-56
2023/12/27 14:48:58;;;;;;;;;;;;;;;;;;5142192;28;19918;-57
2023/12/27 14:51:29;;;;;;;;;;;;;;;;;;5142204;28;20013;-57
2023/12/27 14:54:00;;;;;;;;;;;;;;;;;;5146968;28;19928;-59
2023/12/27 14:56:31;;;;;;;;;;;;;;;;;;5139421;28;20328;-58
2023/12/27 14:59:03;;;;;;;;;;;;;;;;;;5142081;28;20005;-58
2023/12/27 15:01:34;;;;;;;;;;;;;;;;;;5141818;28;20373;-58
2023/12/27 15:04:07;;;;;;;;;;;;;;;;;;5142340;28;20222;-58
2023/12/27 15:06:39;;;;;;;;;;;;;;;;;;5126357;28;19946;-58
2023/12/27 15:09:12;;;;;;;;;;;;;;;;;;5126113;28;19918;-58
2023/12/27 15:11:43;;;;;;;;;;;;;;;;;;5142110;28;19930;-58
2023/12/27 15:14:14;;;;;;;;;;;;;;;;;;5126735;28;19925;-58
2023/12/27 15:16:47;;;;;;;;;;;;;;;;;;5125536;28;19969;-59
2023/12/27 15:19:18;;;;;;;;;;;;;;;;;;5141868;28;19925;-58
2023/12/27 15:21:49;;;;;;;;;;;;;;;;;;5128310;28;19922;-58
2023/12/27 15:24:20;;;;;;;;;;;;;;;;;;5142200;28;19929;-59
2023/12/27 15:26:51;;;;;;;;;;;;;;;;;;5142363;28;20322;-58
2023/12/27 15:29:22;;;;;;;;;;;;;;;;;;5142164;28;20465;-58
2023/12/27 15:31:53;;;;;;;;;;;;;;;;;;5142101;28;20012;-58
2023/12/27 15:34:24;;;;;;;;;;;;;;;;;;5141667;28;20245;-59
2023/12/27 15:36:55;;;;;;;;;;;;;;;;;;5141997;28;20036;-58
2023/12/27 15:39:28;;;;;;;;;;;;;;;;;;5142147;28;19940;-59
2023/12/27 15:41:59;;;;;;;;;;;;;;;;;;5125486;28;19918;-58
2023/12/27 15:44:31;;;;;;;;;;;;;;;;;;5141763;28;19925;-63
2023/12/27 15:47:02;;;;;;;;;;;;;;;;;;5142466;28;20391;-58
2023/12/27 15:49:33;;;;;;;;;;;;;;;;;;5141482;28;19994;-58
2023/12/27 15:52:05;;;;;;;;;;;;;;;;;;5125527;28;19925;-58
2023/12/27 15:54:36;;;;;;;;;;;;;;;;;;5141487;28;19922;-59
2023/12/27 15:57:09;;;;;;;;;;;;;;;;;;5141422;28;19926;-59
2023/12/27 15:59:40;;;;;;;;;;;;;;;;;;5125685;28;20447;-59
2023/12/27 16:02:11;;;;;;;;;;;;;;;;;;5140790;28;19918;-59
2023/12/27 16:04:42;;;;;;;;;;;;;;;;;;5142007;28;20404;-59
2023/12/27 16:07:13;;;;;;;;;;;;;;;;;;5141485;28;19922;-59
2023/12/27 16:09:44;;;;;;;;;;;;;;;;;;5141225;28;19922;-59
2023/12/27 16:12:15;;;;;;;;;;;;;;;;;;5142252;28;19984;-58
2023/12/27 16:14:51;;;;;;;;;;;;;;;;;;5125933;28;19969;-58
2023/12/27 16:17:22;;;;;;;;;;;;;;;;;;5141230;28;19918;-59
2023/12/27 16:19:54;;;;;;;;;;;;;;;;;;5139767;28;20377;-58
2023/12/27 16:22:26;;;;;;;;;;;;;;;;;;5141547;28;20017;-58
2023/12/27 16:24:57;;;;;;;;;;;;;;;;;;5141499;28;20412;-58
2023/12/27 16:27:28;;;;;;;;;;;;;;;;;;5125056;28;19918;-58
2023/12/27 16:29:59;;;;;;;;;;;;;;;;;;5140604;28;19918;-57
2023/12/27 16:32:30;;;;;;;;;;;;;;;;;;5136578;28;19933;-57
2023/12/27 16:35:02;;;;;;;;;;;;;;;;;;5140234;28;19930;-57
2023/12/27 16:37:33;;;;;;;;;;;;;;;;;;5125580;28;20341;-57
2023/12/27 16:40:04;;;;;;;;;;;;;;;;;;5140627;28;19936;-58
2023/12/27 16:42:35;;;;;;;;;;;;;;;;;;5125289;28;19930;-57
2023/12/27 16:45:07;;;;;;;;;;;;;;;;;;5140921;28;19922;-57
2023/12/27 16:47:38;;;;;;;;;;;;;;;;;;5140039;28;19969;-57
2023/12/27 16:50:09;;;;;;;;;;;;;;;;;;5140925;28;20001;-56
2023/12/27 16:52:40;;;;;;;;;;;;;;;;;;5124316;28;19918;-56
2023/12/27 16:55:11;;;;;;;;;;;;;;;;;;5140946;28;19951;-56
2023/12/27 16:57:42;;;;;;;;;;;;;;;;;;5140720;28;19933;-56
2023/12/27 17:00:13;;;;;;;;;;;;;;;;;;5123424;28;19922;-56
2023/12/27 17:02:45;;;;;;;;;;;;;;;;;;5141064;28;20025;-57
2023/12/27 17:05:17;;;;;;;;;;;;;;;;;;5124050;28;19932;-57
2023/12/27 17:07:48;;;;;;;;;;;;;;;;;;5140465;28;19952;-57
2023/12/27 17:10:19;;;;;;;;;;;;;;;;;;5141025;28;19922;-56
2023/12/27 17:12:50;;;;;;;;;;;;;;;;;;5140530;28;19929;-57